sensor_id;sensor_type;location;lat;lon;timestamp;temperature;humidity
13086;DHT22;6609;49.882;8.664;2023-05-10T00:02:41;15.30;98.20
13086;DHT22;6609;49.882;8.664;2023-05-10T00:10:03;15.20;98.00
13086;DHT22;6609;49.882;8.664;2023-05-10T00:14:57;15.10;98.00
13086;DHT22;6609;49.882;8.664;2023-05-10T00:19:51;15.10;97.70
13086;DHT22;6609;49.882;8.664;2023-05-10T00:24:45;15.00;97.60
13086;DHT22;6609;49.882;8.664;2023-05-10T00:27:13;15.00;97.70
13086;DHT22;6609;49.882;8.664;2023-05-10T00:34:33;14.90;97.70
13086;DHT22;6609;49.882;8.664;2023-05-10T00:44:22;14.90;98.30
13086;DHT22;6609;49.882;8.664;2023-05-10T00:46:51;14.80;98.20
13086;DHT22;6609;49.882;8.664;2023-05-10T00:49:18;14.80;98.40
13086;DHT22;6609;49.882;8.664;2023-05-10T00:51:46;14.80;98.40
13086;DHT22;6609;49.882;8.664;2023-05-10T00:54:14;14.80;98.40
13086;DHT22;6609;49.882;8.664;2023-05-10T00:59:09;14.80;98.50
13086;DHT22;6609;49.882;8.664;2023-05-10T01:01:37;14.90;98.50
13086;DHT22;6609;49.882;8.664;2023-05-10T01:04:04;14.90;98.50
13086;DHT22;6609;49.882;8.664;2023-05-10T01:08:58;14.90;98.50
13086;DHT22;6609;49.882;8.664;2023-05-10T01:11:25;14.90;98.50
13086;DHT22;6609;49.882;8.664;2023-05-10T01:13:55;15.00;98.60
13086;DHT22;6609;49.882;8.664;2023-05-10T01:16:22;14.90;98.50
13086;DHT22;6609;49.882;8.664;2023-05-10T01:18:51;14.90;98.50
13086;DHT22;6609;49.882;8.664;2023-05-10T01:21:27;14.90;98.60
13086;DHT22;6609;49.882;8.664;2023-05-10T01:24:36;14.90;98.60
13086;DHT22;6609;49.882;8.664;2023-05-10T01:27:20;14.90;98.60
13086;DHT22;6609;49.882;8.664;2023-05-10T01:30:08;14.90;98.60
13086;DHT22;6609;49.882;8.664;2023-05-10T01:32:43;14.90;98.50
13086;DHT22;6609;49.882;8.664;2023-05-10T01:35:17;14.90;98.50
13086;DHT22;6609;49.882;8.664;2023-05-10T01:37:49;14.90;98.50
13086;DHT22;6609;49.882;8.664;2023-05-10T01:40:23;14.90;98.40
13086;DHT22;6609;49.882;8.664;2023-05-10T01:42:55;14.90;98.30
13086;DHT22;6609;49.882;8.664;2023-05-10T01:45:30;14.90;98.40
13086;DHT22;6609;49.882;8.664;2023-05-10T01:48:05;14.90;98.40
13086;DHT22;6609;49.882;8.664;2023-05-10T01:50:34;14.80;98.40
13086;DHT22;6609;49.882;8.664;2023-05-10T01:53:02;14.80;98.40
13086;DHT22;6609;49.882;8.664;2023-05-10T01:55:32;14.80;98.40
13086;DHT22;6609;49.882;8.664;2023-05-10T01:58:03;14.90;98.40
13086;DHT22;6609;49.882;8.664;2023-05-10T02:00:31;14.90;98.30
13086;DHT22;6609;49.882;8.664;2023-05-10T02:03:01;14.80;98.40
13086;DHT22;6609;49.882;8.664;2023-05-10T02:05:32;14.90;98.30
13086;DHT22;6609;49.882;8.664;2023-05-10T02:08:00;14.80;98.20
13086;DHT22;6609;49.882;8.664;2023-05-10T02:10:28;14.80;98.20
13086;DHT22;6609;49.882;8.664;2023-05-10T02:12:55;14.80;98.20
13086;DHT22;6609;49.882;8.664;2023-05-10T02:15:25;14.80;98.30
13086;DHT22;6609;49.882;8.664;2023-05-10T02:17:54;14.80;98.30
13086;DHT22;6609;49.882;8.664;2023-05-10T02:20:23;14.80;98.40
13086;DHT22;6609;49.882;8.664;2023-05-10T02:22:52;14.80;98.30
13086;DHT22;6609;49.882;8.664;2023-05-10T02:25:21;14.80;98.20
13086;DHT22;6609;49.882;8.664;2023-05-10T02:27:48;14.80;98.10
13086;DHT22;6609;49.882;8.664;2023-05-10T02:30:15;14.80;98.10
13086;DHT22;6609;49.882;8.664;2023-05-10T02:37:39;14.80;98.00
13086;DHT22;6609;49.882;8.664;2023-05-10T02:40:07;15.00;98.00
13086;DHT22;6609;49.882;8.664;2023-05-10T02:42:36;14.80;97.80
13086;DHT22;6609;49.882;8.664;2023-05-10T02:45:08;14.80;98.00
13086;DHT22;6609;49.882;8.664;2023-05-10T02:50:04;14.80;98.00
13086;DHT22;6609;49.882;8.664;2023-05-10T02:52:40;14.80;97.80
13086;DHT22;6609;49.882;8.664;2023-05-10T02:55:11;14.80;97.80
13086;DHT22;6609;49.882;8.664;2023-05-10T02:57:41;14.80;97.80
13086;DHT22;6609;49.882;8.664;2023-05-10T03:00:10;14.80;97.80
13086;DHT22;6609;49.882;8.664;2023-05-10T03:02:37;14.70;97.90
13086;DHT22;6609;49.882;8.664;2023-05-10T03:07:32;14.70;97.80
13086;DHT22;6609;49.882;8.664;2023-05-10T03:10:01;14.70;97.90
13086;DHT22;6609;49.882;8.664;2023-05-10T03:12:33;14.70;97.80
13086;DHT22;6609;49.882;8.664;2023-05-10T03:15:11;14.60;97.90
13086;DHT22;6609;49.882;8.664;2023-05-10T03:17:47;14.60;97.90
13086;DHT22;6609;49.882;8.664;2023-05-10T03:30:13;14.50;97.90
13086;DHT22;6609;49.882;8.664;2023-05-10T03:35:08;14.60;98.00
13086;DHT22;6609;49.882;8.664;2023-05-10T03:40:04;14.60;98.10
13086;DHT22;6609;49.882;8.664;2023-05-10T03:42:32;14.60;98.10
13086;DHT22;6609;49.882;8.664;2023-05-10T03:44:59;14.60;98.10
13086;DHT22;6609;49.882;8.664;2023-05-10T03:47:26;14.60;98.20
13086;DHT22;6609;49.882;8.664;2023-05-10T03:49:52;14.60;98.20
13086;DHT22;6609;49.882;8.664;2023-05-10T03:52:19;14.60;98.10
13086;DHT22;6609;49.882;8.664;2023-05-10T03:54:46;14.60;98.10
13086;DHT22;6609;49.882;8.664;2023-05-10T03:59:40;14.60;97.90
13086;DHT22;6609;49.882;8.664;2023-05-10T04:09:28;14.60;97.90
13086;DHT22;6609;49.882;8.664;2023-05-10T04:11:55;14.60;98.00
13086;DHT22;6609;49.882;8.664;2023-05-10T04:16:50;14.60;97.90
13086;DHT22;6609;49.882;8.664;2023-05-10T04:19:16;14.60;97.90
13086;DHT22;6609;49.882;8.664;2023-05-10T04:21:43;14.60;97.80
13086;DHT22;6609;49.882;8.664;2023-05-10T04:26:37;14.60;97.70
13086;DHT22;6609;49.882;8.664;2023-05-10T04:29:03;14.60;97.70
13086;DHT22;6609;49.882;8.664;2023-05-10T04:33:59;14.70;97.80
13086;DHT22;6609;49.882;8.664;2023-05-10T04:36:25;14.70;97.90
13086;DHT22;6609;49.882;8.664;2023-05-10T04:41:20;14.70;97.90
13086;DHT22;6609;49.882;8.664;2023-05-10T04:51:10;14.70;98.00
13086;DHT22;6609;49.882;8.664;2023-05-10T04:56:04;14.70;97.80
13086;DHT22;6609;49.882;8.664;2023-05-10T05:01:05;14.70;97.60
13086;DHT22;6609;49.882;8.664;2023-05-10T05:03:32;14.70;97.70
13086;DHT22;6609;49.882;8.664;2023-05-10T05:08:27;14.70;97.60
13086;DHT22;6609;49.882;8.664;2023-05-10T05:13:21;14.60;97.60
13086;DHT22;6609;49.882;8.664;2023-05-10T05:20:41;14.60;97.50
13086;DHT22;6609;49.882;8.664;2023-05-10T05:30:31;14.60;97.40
13086;DHT22;6609;49.882;8.664;2023-05-10T05:32:58;14.60;97.40
13086;DHT22;6609;49.882;8.664;2023-05-10T05:35:24;14.70;97.30
13086;DHT22;6609;49.882;8.664;2023-05-10T05:37:51;14.70;97.30
13086;DHT22;6609;49.882;8.664;2023-05-10T05:40:18;14.70;97.20
13086;DHT22;6609;49.882;8.664;2023-05-10T05:42:47;14.70;97.20
13086;DHT22;6609;49.882;8.664;2023-05-10T05:45:13;14.70;96.90
13086;DHT22;6609;49.882;8.664;2023-05-10T05:47:40;14.70;96.80
13086;DHT22;6609;49.882;8.664;2023-05-10T05:50:07;14.70;96.80
13086;DHT22;6609;49.882;8.664;2023-05-10T05:57:29;14.80;96.60
13086;DHT22;6609;49.882;8.664;2023-05-10T05:59:57;14.80;96.50
13086;DHT22;6609;49.882;8.664;2023-05-10T06:04:52;14.90;96.50
13086;DHT22;6609;49.882;8.664;2023-05-10T06:07:18;15.00;96.50
13086;DHT22;6609;49.882;8.664;2023-05-10T06:12:12;15.00;96.20
13086;DHT22;6609;49.882;8.664;2023-05-10T06:14:39;15.00;96.10
13086;DHT22;6609;49.882;8.664;2023-05-10T06:17:07;15.00;95.80
13086;DHT22;6609;49.882;8.664;2023-05-10T06:24:29;15.20;95.60
13086;DHT22;6609;49.882;8.664;2023-05-10T06:26:55;15.30;95.50
13086;DHT22;6609;49.882;8.664;2023-05-10T06:29:25;15.30;95.40
13086;DHT22;6609;49.882;8.664;2023-05-10T06:34:21;15.40;95.00
13086;DHT22;6609;49.882;8.664;2023-05-10T06:36:47;15.40;94.80
13086;DHT22;6609;49.882;8.664;2023-05-10T06:41:41;15.40;94.50
13086;DHT22;6609;49.882;8.664;2023-05-10T06:44:08;15.40;94.40
13086;DHT22;6609;49.882;8.664;2023-05-10T06:51:31;15.30;94.40
13086;DHT22;6609;49.882;8.664;2023-05-10T06:53:58;15.40;94.70
13086;DHT22;6609;49.882;8.664;2023-05-10T06:58:52;15.40;94.40
13086;DHT22;6609;49.882;8.664;2023-05-10T07:03:46;15.50;94.50
13086;DHT22;6609;49.882;8.664;2023-05-10T07:08:41;15.70;94.30
13086;DHT22;6609;49.882;8.664;2023-05-10T07:11:08;15.70;94.10
13086;DHT22;6609;49.882;8.664;2023-05-10T07:16:04;15.80;93.80
13086;DHT22;6609;49.882;8.664;2023-05-10T07:18:31;15.90;94.00
13086;DHT22;6609;49.882;8.664;2023-05-10T07:20:58;16.00;93.90
13086;DHT22;6609;49.882;8.664;2023-05-10T07:23:25;16.00;93.70
13086;DHT22;6609;49.882;8.664;2023-05-10T07:25:53;16.00;93.40
13086;DHT22;6609;49.882;8.664;2023-05-10T07:28:20;16.10;93.30
13086;DHT22;6609;49.882;8.664;2023-05-10T07:38:08;16.20;92.80
13086;DHT22;6609;49.882;8.664;2023-05-10T07:40:36;16.20;92.80
13086;DHT22;6609;49.882;8.664;2023-05-10T07:43:06;16.20;92.80
13086;DHT22;6609;49.882;8.664;2023-05-10T07:48:00;16.30;92.90
13086;DHT22;6609;49.882;8.664;2023-05-10T07:52:56;16.60;92.60
13086;DHT22;6609;49.882;8.664;2023-05-10T07:57:50;16.70;92.10
13086;DHT22;6609;49.882;8.664;2023-05-10T08:00:19;16.80;92.00
13086;DHT22;6609;49.882;8.664;2023-05-10T08:05:14;16.80;91.60
13086;DHT22;6609;49.882;8.664;2023-05-10T08:07:41;16.80;91.50
13086;DHT22;6609;49.882;8.664;2023-05-10T08:10:10;16.80;91.00
13086;DHT22;6609;49.882;8.664;2023-05-10T08:12:37;16.80;91.00
13086;DHT22;6609;49.882;8.664;2023-05-10T08:15:05;16.80;91.00
13086;DHT22;6609;49.882;8.664;2023-05-10T08:17:33;16.80;90.90
13086;DHT22;6609;49.882;8.664;2023-05-10T08:22:27;16.90;90.80
13086;DHT22;6609;49.882;8.664;2023-05-10T08:24:54;16.90;90.60
13086;DHT22;6609;49.882;8.664;2023-05-10T08:27:20;16.90;90.30
13086;DHT22;6609;49.882;8.664;2023-05-10T08:34:43;16.50;90.10
13086;DHT22;6609;49.882;8.664;2023-05-10T08:37:09;16.50;90.20
13086;DHT22;6609;49.882;8.664;2023-05-10T08:39:38;16.40;90.40
13086;DHT22;6609;49.882;8.664;2023-05-10T08:44:34;16.20;90.70
13086;DHT22;6609;49.882;8.664;2023-05-10T08:47:04;16.10;91.10
13086;DHT22;6609;49.882;8.664;2023-05-10T08:52:02;16.00;91.80
13086;DHT22;6609;49.882;8.664;2023-05-10T08:54:32;15.90;92.00
13086;DHT22;6609;49.882;8.664;2023-05-10T08:59:26;16.10;92.80
13086;DHT22;6609;49.882;8.664;2023-05-10T09:01:54;16.10;92.80
13086;DHT22;6609;49.882;8.664;2023-05-10T09:04:22;16.20;92.80
13086;DHT22;6609;49.882;8.664;2023-05-10T09:09:18;16.40;93.30
13086;DHT22;6609;49.882;8.664;2023-05-10T09:11:48;16.50;93.30
13086;DHT22;6609;49.882;8.664;2023-05-10T09:14:15;16.60;93.20
13086;DHT22;6609;49.882;8.664;2023-05-10T09:16:42;16.70;93.10
13086;DHT22;6609;49.882;8.664;2023-05-10T09:19:09;16.70;93.00
13086;DHT22;6609;49.882;8.664;2023-05-10T09:21:36;16.80;93.00
13086;DHT22;6609;49.882;8.664;2023-05-10T09:24:05;16.80;93.10
13086;DHT22;6609;49.882;8.664;2023-05-10T09:26:33;16.90;92.70
13086;DHT22;6609;49.882;8.664;2023-05-10T09:29:01;17.00;92.30
13086;DHT22;6609;49.882;8.664;2023-05-10T09:31:45;17.10;92.10
13086;DHT22;6609;49.882;8.664;2023-05-10T09:34:16;17.20;91.90
13086;DHT22;6609;49.882;8.664;2023-05-10T09:36:51;17.30;91.90
13086;DHT22;6609;49.882;8.664;2023-05-10T09:39:18;17.40;91.30
13086;DHT22;6609;49.882;8.664;2023-05-10T09:41:47;17.30;90.60
13086;DHT22;6609;49.882;8.664;2023-05-10T09:44:17;17.20;90.30
13086;DHT22;6609;49.882;8.664;2023-05-10T09:46:49;17.10;90.30
13086;DHT22;6609;49.882;8.664;2023-05-10T09:54:12;16.20;91.70
13086;DHT22;6609;49.882;8.664;2023-05-10T09:59:11;15.80;93.20
13086;DHT22;6609;49.882;8.664;2023-05-10T10:01:38;15.70;94.00
13086;DHT22;6609;49.882;8.664;2023-05-10T10:04:07;15.60;94.60
13086;DHT22;6609;49.882;8.664;2023-05-10T10:06:37;15.50;95.20
13086;DHT22;6609;49.882;8.664;2023-05-10T10:09:05;15.60;95.80
13086;DHT22;6609;49.882;8.664;2023-05-10T10:13:59;15.80;96.50
13086;DHT22;6609;49.882;8.664;2023-05-10T10:16:29;15.90;96.70
13086;DHT22;6609;49.882;8.664;2023-05-10T10:21:23;16.00;96.80
13086;DHT22;6609;49.882;8.664;2023-05-10T10:23:51;16.00;96.90
13086;DHT22;6609;49.882;8.664;2023-05-10T10:26:19;16.00;97.00
13086;DHT22;6609;49.882;8.664;2023-05-10T10:28:51;16.10;97.10
13086;DHT22;6609;49.882;8.664;2023-05-10T10:31:30;16.20;97.10
13086;DHT22;6609;49.882;8.664;2023-05-10T10:34:05;16.30;97.20
13086;DHT22;6609;49.882;8.664;2023-05-10T10:36:32;16.70;97.10
13086;DHT22;6609;49.882;8.664;2023-05-10T10:39:01;16.40;96.70
13086;DHT22;6609;49.882;8.664;2023-05-10T10:41:33;16.50;96.50
13086;DHT22;6609;49.882;8.664;2023-05-10T10:44:22;16.60;95.90
13086;DHT22;6609;49.882;8.664;2023-05-10T10:47:01;16.80;95.40
13086;DHT22;6609;49.882;8.664;2023-05-10T10:49:30;16.90;94.90
13086;DHT22;6609;49.882;8.664;2023-05-10T10:52:33;16.90;94.40
13086;DHT22;6609;49.882;8.664;2023-05-10T10:55:02;16.80;93.20
13086;DHT22;6609;49.882;8.664;2023-05-10T10:57:32;16.70;92.60
13086;DHT22;6609;49.882;8.664;2023-05-10T11:00:18;16.60;91.90
13086;DHT22;6609;49.882;8.664;2023-05-10T11:02:48;16.50;91.90
13086;DHT22;6609;49.882;8.664;2023-05-10T11:05:36;16.50;91.80
13086;DHT22;6609;49.882;8.664;2023-05-10T11:08:11;16.50;91.00
13086;DHT22;6609;49.882;8.664;2023-05-10T11:10:39;16.50;90.90
13086;DHT22;6609;49.882;8.664;2023-05-10T11:13:08;16.40;90.40
13086;DHT22;6609;49.882;8.664;2023-05-10T11:15:37;16.40;90.20
13086;DHT22;6609;49.882;8.664;2023-05-10T11:18:18;16.30;89.30
13086;DHT22;6609;49.882;8.664;2023-05-10T11:20:50;16.30;90.00
13086;DHT22;6609;49.882;8.664;2023-05-10T11:23:17;16.30;90.10
13086;DHT22;6609;49.882;8.664;2023-05-10T11:25:46;16.30;89.60
13086;DHT22;6609;49.882;8.664;2023-05-10T11:28:14;16.30;89.40
13086;DHT22;6609;49.882;8.664;2023-05-10T11:30:44;16.30;89.40
13086;DHT22;6609;49.882;8.664;2023-05-10T11:33:15;16.40;89.50
13086;DHT22;6609;49.882;8.664;2023-05-10T11:35:43;16.40;89.60
13086;DHT22;6609;49.882;8.664;2023-05-10T11:38:11;16.50;89.40
13086;DHT22;6609;49.882;8.664;2023-05-10T11:40:39;16.70;88.70
13086;DHT22;6609;49.882;8.664;2023-05-10T11:48:00;18.00;84.60
13086;DHT22;6609;49.882;8.664;2023-05-10T11:50:27;18.30;81.30
13086;DHT22;6609;49.882;8.664;2023-05-10T11:52:56;18.60;80.50
13086;DHT22;6609;49.882;8.664;2023-05-10T11:55:24;18.80;79.10
13086;DHT22;6609;49.882;8.664;2023-05-10T11:57:52;19.10;77.20
13086;DHT22;6609;49.882;8.664;2023-05-10T12:00:18;19.20;76.00
13086;DHT22;6609;49.882;8.664;2023-05-10T12:02:45;19.40;75.00
13086;DHT22;6609;49.882;8.664;2023-05-10T12:05:12;19.40;74.20
13086;DHT22;6609;49.882;8.664;2023-05-10T12:10:09;19.60;70.80
13086;DHT22;6609;49.882;8.664;2023-05-10T12:12:38;19.70;70.20
13086;DHT22;6609;49.882;8.664;2023-05-10T12:15:10;19.80;69.60
13086;DHT22;6609;49.882;8.664;2023-05-10T12:17:38;19.90;69.10
13086;DHT22;6609;49.882;8.664;2023-05-10T12:20:19;19.90;68.70
13086;DHT22;6609;49.882;8.664;2023-05-10T12:22:48;19.80;66.30
13086;DHT22;6609;49.882;8.664;2023-05-10T12:25:17;19.60;66.70
13086;DHT22;6609;49.882;8.664;2023-05-10T12:27:54;19.50;66.20
13086;DHT22;6609;49.882;8.664;2023-05-10T12:30:22;19.30;66.60
13086;DHT22;6609;49.882;8.664;2023-05-10T12:32:49;19.10;66.70
13086;DHT22;6609;49.882;8.664;2023-05-10T12:35:16;19.00;67.00
13086;DHT22;6609;49.882;8.664;2023-05-10T12:37:47;18.80;66.90
13086;DHT22;6609;49.882;8.664;2023-05-10T12:40:14;18.70;67.00
13086;DHT22;6609;49.882;8.664;2023-05-10T12:42:42;18.80;66.90
13086;DHT22;6609;49.882;8.664;2023-05-10T12:45:10;18.90;67.50
13086;DHT22;6609;49.882;8.664;2023-05-10T12:50:05;19.20;68.00
13086;DHT22;6609;49.882;8.664;2023-05-10T12:52:32;19.60;66.70
13086;DHT22;6609;49.882;8.664;2023-05-10T12:54:59;19.80;63.00
13086;DHT22;6609;49.882;8.664;2023-05-10T12:57:26;20.00;60.00
13086;DHT22;6609;49.882;8.664;2023-05-10T12:59:55;20.00;59.60
13086;DHT22;6609;49.882;8.664;2023-05-10T13:04:49;20.00;59.20
13086;DHT22;6609;49.882;8.664;2023-05-10T13:07:16;19.90;59.20
13086;DHT22;6609;49.882;8.664;2023-05-10T13:09:43;19.70;59.50
13086;DHT22;6609;49.882;8.664;2023-05-10T13:14:37;19.30;61.10
13086;DHT22;6609;49.882;8.664;2023-05-10T13:17:07;19.20;62.40
13086;DHT22;6609;49.882;8.664;2023-05-10T13:22:01;18.90;63.10
13086;DHT22;6609;49.882;8.664;2023-05-10T13:29:21;18.60;61.90
13086;DHT22;6609;49.882;8.664;2023-05-10T13:34:17;18.50;60.30
13086;DHT22;6609;49.882;8.664;2023-05-10T13:36:46;18.50;60.00
13086;DHT22;6609;49.882;8.664;2023-05-10T13:49:00;18.80;63.20
13086;DHT22;6609;49.882;8.664;2023-05-10T13:51:28;19.00;62.80
13086;DHT22;6609;49.882;8.664;2023-05-10T14:01:18;19.20;62.80
13086;DHT22;6609;49.882;8.664;2023-05-10T14:03:45;19.20;62.80
13086;DHT22;6609;49.882;8.664;2023-05-10T14:06:11;19.20;62.90
13086;DHT22;6609;49.882;8.664;2023-05-10T14:08:39;19.10;63.30
13086;DHT22;6609;49.882;8.664;2023-05-10T14:11:06;19.10;63.70
13086;DHT22;6609;49.882;8.664;2023-05-10T14:16:00;18.90;63.30
13086;DHT22;6609;49.882;8.664;2023-05-10T14:18:27;18.90;64.50
13086;DHT22;6609;49.882;8.664;2023-05-10T14:20:55;18.90;65.00
13086;DHT22;6609;49.882;8.664;2023-05-10T14:23:21;18.90;65.30
13086;DHT22;6609;49.882;8.664;2023-05-10T14:25:51;18.90;65.20
13086;DHT22;6609;49.882;8.664;2023-05-10T14:28:18;18.80;64.70
13086;DHT22;6609;49.882;8.664;2023-05-10T14:30:46;18.60;64.80
13086;DHT22;6609;49.882;8.664;2023-05-10T14:35:39;18.50;65.60
13086;DHT22;6609;49.882;8.664;2023-05-10T14:38:07;18.50;65.70
13086;DHT22;6609;49.882;8.664;2023-05-10T14:43:02;18.50;64.70
13086;DHT22;6609;49.882;8.664;2023-05-10T14:45:29;18.50;64.40
13086;DHT22;6609;49.882;8.664;2023-05-10T14:47:56;18.60;64.20
13086;DHT22;6609;49.882;8.664;2023-05-10T14:50:23;18.70;64.20
13086;DHT22;6609;49.882;8.664;2023-05-10T14:55:17;18.70;63.10
13086;DHT22;6609;49.882;8.664;2023-05-10T15:00:15;18.80;63.10
13086;DHT22;6609;49.882;8.664;2023-05-10T15:07:36;18.90;61.80
13086;DHT22;6609;49.882;8.664;2023-05-10T15:10:03;19.00;61.10
13086;DHT22;6609;49.882;8.664;2023-05-10T15:12:30;19.00;61.30
13086;DHT22;6609;49.882;8.664;2023-05-10T15:14:57;19.00;60.00
13086;DHT22;6609;49.882;8.664;2023-05-10T15:17:25;19.00;59.50
13086;DHT22;6609;49.882;8.664;2023-05-10T15:22:18;19.00;59.20
13086;DHT22;6609;49.882;8.664;2023-05-10T15:24:46;19.00;58.80
13086;DHT22;6609;49.882;8.664;2023-05-10T15:34:35;19.00;58.00
13086;DHT22;6609;49.882;8.664;2023-05-10T15:41:56;18.90;58.10
13086;DHT22;6609;49.882;8.664;2023-05-10T15:44:23;18.90;58.30
13086;DHT22;6609;49.882;8.664;2023-05-10T15:49:17;18.80;57.70
13086;DHT22;6609;49.882;8.664;2023-05-10T15:51:45;18.90;57.70
13086;DHT22;6609;49.882;8.664;2023-05-10T15:56:39;18.90;57.80
13086;DHT22;6609;49.882;8.664;2023-05-10T15:59:05;18.90;57.50
13086;DHT22;6609;49.882;8.664;2023-05-10T16:06:27;18.80;56.30
13086;DHT22;6609;49.882;8.664;2023-05-10T16:08:55;18.70;56.20
13086;DHT22;6609;49.882;8.664;2023-05-10T16:11:22;18.70;56.20
13086;DHT22;6609;49.882;8.664;2023-05-10T16:26:05;18.80;55.70
13086;DHT22;6609;49.882;8.664;2023-05-10T16:31:00;18.80;56.40
13086;DHT22;6609;49.882;8.664;2023-05-10T16:33:26;18.70;55.80
13086;DHT22;6609;49.882;8.664;2023-05-10T16:38:20;18.70;55.10
13086;DHT22;6609;49.882;8.664;2023-05-10T16:43:15;18.70;56.00
13086;DHT22;6609;49.882;8.664;2023-05-10T16:48:09;18.70;55.00
13086;DHT22;6609;49.882;8.664;2023-05-10T16:50:35;18.70;55.60
13086;DHT22;6609;49.882;8.664;2023-05-10T16:53:02;18.60;55.00
13086;DHT22;6609;49.882;8.664;2023-05-10T16:55:29;18.60;54.60
13086;DHT22;6609;49.882;8.664;2023-05-10T16:57:55;18.70;54.40
13086;DHT22;6609;49.882;8.664;2023-05-10T17:00:26;18.60;54.70
13086;DHT22;6609;49.882;8.664;2023-05-10T17:10:15;18.60;54.30
13086;DHT22;6609;49.882;8.664;2023-05-10T17:12:42;18.60;54.40
13086;DHT22;6609;49.882;8.664;2023-05-10T17:15:09;18.50;54.40
13086;DHT22;6609;49.882;8.664;2023-05-10T17:17:37;18.60;54.10
13086;DHT22;6609;49.882;8.664;2023-05-10T17:20:05;18.50;54.60
13086;DHT22;6609;49.882;8.664;2023-05-10T17:22:31;18.50;53.90
13086;DHT22;6609;49.882;8.664;2023-05-10T17:29:56;18.40;54.40
13086;DHT22;6609;49.882;8.664;2023-05-10T17:34:52;18.30;55.00
13086;DHT22;6609;49.882;8.664;2023-05-10T17:37:18;18.40;55.40
13086;DHT22;6609;49.882;8.664;2023-05-10T17:39:45;18.30;54.60
13086;DHT22;6609;49.882;8.664;2023-05-10T17:47:08;18.30;53.80
13086;DHT22;6609;49.882;8.664;2023-05-10T17:49:35;18.20;54.40
13086;DHT22;6609;49.882;8.664;2023-05-10T17:52:03;18.20;55.40
13086;DHT22;6609;49.882;8.664;2023-05-10T18:04:19;18.00;54.80
13086;DHT22;6609;49.882;8.664;2023-05-10T18:09:15;17.90;55.90
13086;DHT22;6609;49.882;8.664;2023-05-10T18:11:42;17.80;56.30
13086;DHT22;6609;49.882;8.664;2023-05-10T18:16:35;17.80;58.00
13086;DHT22;6609;49.882;8.664;2023-05-10T18:19:02;17.80;59.30
13086;DHT22;6609;49.882;8.664;2023-05-10T18:23:57;17.60;61.00
13086;DHT22;6609;49.882;8.664;2023-05-10T18:26:26;17.50;61.60
13086;DHT22;6609;49.882;8.664;2023-05-10T18:28:52;17.50;62.30
13086;DHT22;6609;49.882;8.664;2023-05-10T18:36:13;17.40;64.00
13086;DHT22;6609;49.882;8.664;2023-05-10T18:43:38;17.20;64.60
13086;DHT22;6609;49.882;8.664;2023-05-10T18:46:06;17.20;65.00
13086;DHT22;6609;49.882;8.664;2023-05-10T18:48:33;17.10;65.50
13086;DHT22;6609;49.882;8.664;2023-05-10T18:55:55;16.90;67.70
13086;DHT22;6609;49.882;8.664;2023-05-10T19:00:52;16.80;69.40
13086;DHT22;6609;49.882;8.664;2023-05-10T19:03:20;16.60;70.30
13086;DHT22;6609;49.882;8.664;2023-05-10T19:05:47;16.60;71.00
13086;DHT22;6609;49.882;8.664;2023-05-10T19:08:14;16.60;71.40
13086;DHT22;6609;49.882;8.664;2023-05-10T19:10:41;16.50;71.60
13086;DHT22;6609;49.882;8.664;2023-05-10T19:18:03;16.30;72.90
13086;DHT22;6609;49.882;8.664;2023-05-10T19:20:30;16.30;73.10
13086;DHT22;6609;49.882;8.664;2023-05-10T19:27:53;16.10;73.70
13086;DHT22;6609;49.882;8.664;2023-05-10T19:32:48;16.00;73.90
13086;DHT22;6609;49.882;8.664;2023-05-10T19:35:16;16.00;74.00
13086;DHT22;6609;49.882;8.664;2023-05-10T19:37:43;16.00;74.20
13086;DHT22;6609;49.882;8.664;2023-05-10T19:40:11;15.90;74.40
13086;DHT22;6609;49.882;8.664;2023-05-10T19:42:39;15.80;74.90
13086;DHT22;6609;49.882;8.664;2023-05-10T19:50:00;15.70;75.80
13086;DHT22;6609;49.882;8.664;2023-05-10T19:52:28;15.70;75.90
13086;DHT22;6609;49.882;8.664;2023-05-10T19:54:55;15.60;75.90
13086;DHT22;6609;49.882;8.664;2023-05-10T19:57:21;15.60;76.20
13086;DHT22;6609;49.882;8.664;2023-05-10T20:02:15;15.60;76.40
13086;DHT22;6609;49.882;8.664;2023-05-10T20:04:42;15.50;76.50
13086;DHT22;6609;49.882;8.664;2023-05-10T20:07:09;15.50;76.30
13086;DHT22;6609;49.882;8.664;2023-05-10T20:09:38;15.50;76.40
13086;DHT22;6609;49.882;8.664;2023-05-10T20:16:58;15.30;76.50
13086;DHT22;6609;49.882;8.664;2023-05-10T20:26:48;15.40;72.90
13086;DHT22;6609;49.882;8.664;2023-05-10T20:31:42;15.50;71.80
13086;DHT22;6609;49.882;8.664;2023-05-10T20:34:09;15.50;71.30
13086;DHT22;6609;49.882;8.664;2023-05-10T20:39:02;15.50;70.80
13086;DHT22;6609;49.882;8.664;2023-05-10T20:43:58;15.50;70.40
13086;DHT22;6609;49.882;8.664;2023-05-10T20:46:24;15.50;70.60
13086;DHT22;6609;49.882;8.664;2023-05-10T20:51:18;15.50;70.00
13086;DHT22;6609;49.882;8.664;2023-05-10T20:53:45;15.50;70.20
13086;DHT22;6609;49.882;8.664;2023-05-10T20:56:12;15.50;70.30
13086;DHT22;6609;49.882;8.664;2023-05-10T21:01:07;15.50;70.50
13086;DHT22;6609;49.882;8.664;2023-05-10T21:03:33;15.60;70.50
13086;DHT22;6609;49.882;8.664;2023-05-10T21:06:00;15.60;70.60
13086;DHT22;6609;49.882;8.664;2023-05-10T21:18:16;15.50;70.50
13086;DHT22;6609;49.882;8.664;2023-05-10T21:20:42;15.50;70.30
13086;DHT22;6609;49.882;8.664;2023-05-10T21:25:36;15.50;70.20
13086;DHT22;6609;49.882;8.664;2023-05-10T21:28:03;15.50;70.10
13086;DHT22;6609;49.882;8.664;2023-05-10T21:32:56;15.40;70.10
13086;DHT22;6609;49.882;8.664;2023-05-10T21:35:25;15.40;70.00
13086;DHT22;6609;49.882;8.664;2023-05-10T21:37:52;15.40;69.90
13086;DHT22;6609;49.882;8.664;2023-05-10T21:47:40;15.40;70.00
13086;DHT22;6609;49.882;8.664;2023-05-10T21:52:37;15.30;70.00
13086;DHT22;6609;49.882;8.664;2023-05-10T21:55:05;15.30;70.10
13086;DHT22;6609;49.882;8.664;2023-05-10T21:57:32;15.30;70.50
13086;DHT22;6609;49.882;8.664;2023-05-10T21:59:59;15.20;70.90
13086;DHT22;6609;49.882;8.664;2023-05-10T22:02:26;15.10;71.10
13086;DHT22;6609;49.882;8.664;2023-05-10T22:04:53;15.10;71.00
13086;DHT22;6609;49.882;8.664;2023-05-10T22:09:49;15.00;70.80
13086;DHT22;6609;49.882;8.664;2023-05-10T22:12:15;14.90;71.00
13086;DHT22;6609;49.882;8.664;2023-05-10T22:14:42;14.90;71.00
13086;DHT22;6609;49.882;8.664;2023-05-10T22:17:08;15.00;70.80
13086;DHT22;6609;49.882;8.664;2023-05-10T22:19:35;15.00;70.50
13086;DHT22;6609;49.882;8.664;2023-05-10T22:24:31;15.00;70.30
13086;DHT22;6609;49.882;8.664;2023-05-10T22:27:00;15.00;69.90
13086;DHT22;6609;49.882;8.664;2023-05-10T22:41:42;14.80;69.60
13086;DHT22;6609;49.882;8.664;2023-05-10T22:44:10;14.80;69.40
13086;DHT22;6609;49.882;8.664;2023-05-10T22:46:37;14.80;69.40
13086;DHT22;6609;49.882;8.664;2023-05-10T22:49:03;14.80;69.50
13086;DHT22;6609;49.882;8.664;2023-05-10T22:53:57;14.70;69.70
13086;DHT22;6609;49.882;8.664;2023-05-10T22:58:51;14.80;69.70
13086;DHT22;6609;49.882;8.664;2023-05-10T23:11:07;14.60;69.40
13086;DHT22;6609;49.882;8.664;2023-05-10T23:13:34;14.60;69.70
13086;DHT22;6609;49.882;8.664;2023-05-10T23:16:04;14.60;69.70
13086;DHT22;6609;49.882;8.664;2023-05-10T23:18:32;14.60;70.00